sensor_id;sensor_type;location;lat;lon;timestamp;P1;durP1;ratioP1;P2;durP2;ratioP2
68942;SDS011;60852;52.190;4.422;2023-03-01T00:02:16;19.43;;;19.43;;
68942;SDS011;60852;52.190;4.422;2023-03-01T00:04:42;18.47;;;18.47;;
68942;SDS011;60852;52.190;4.422;2023-03-01T00:07:07;18.58;;;18.55;;
68942;SDS011;60852;52.190;4.422;2023-03-01T00:09:33;18.27;;;18.10;;
68942;SDS011;60852;52.190;4.422;2023-03-01T00:11:58;18.57;;;18.49;;
68942;SDS011;60852;52.190;4.422;2023-03-01T00:14:23;17.86;;;17.85;;
68942;SDS011;60852;52.190;4.422;2023-03-01T00:16:49;17.80;;;17.79;;
68942;SDS011;60852;52.190;4.422;2023-03-01T00:19:16;18.08;;;18.08;;
68942;SDS011;60852;52.190;4.422;2023-03-01T00:21:43;18.62;;;18.60;;
68942;SDS011;60852;52.190;4.422;2023-03-01T00:24:09;18.25;;;18.21;;
68942;SDS011;60852;52.190;4.422;2023-03-01T00:26:35;18.49;;;18.31;;
68942;SDS011;60852;52.190;4.422;2023-03-01T00:29:01;18.09;;;18.02;;
68942;SDS011;60852;52.190;4.422;2023-03-01T00:31:28;18.74;;;18.47;;
68942;SDS011;60852;52.190;4.422;2023-03-01T00:33:56;19.61;;;19.29;;
68942;SDS011;60852;52.190;4.422;2023-03-01T00:36:25;19.52;;;19.00;;
68942;SDS011;60852;52.190;4.422;2023-03-01T00:38:53;19.46;;;19.25;;
68942;SDS011;60852;52.190;4.422;2023-03-01T00:41:19;19.10;;;19.01;;
68942;SDS011;60852;52.190;4.422;2023-03-01T00:43:45;19.12;;;19.06;;
68942;SDS011;60852;52.190;4.422;2023-03-01T00:46:15;20.62;;;20.17;;
68942;SDS011;60852;52.190;4.422;2023-03-01T00:48:42;20.89;;;20.38;;
68942;SDS011;60852;52.190;4.422;2023-03-01T00:51:09;21.42;;;21.06;;
68942;SDS011;60852;52.190;4.422;2023-03-01T00:53:40;22.29;;;21.99;;
68942;SDS011;60852;52.190;4.422;2023-03-01T00:56:06;21.85;;;21.56;;
68942;SDS011;60852;52.190;4.422;2023-03-01T00:58:33;22.84;;;22.46;;
68942;SDS011;60852;52.190;4.422;2023-03-01T01:01:00;24.19;;;23.60;;
68942;SDS011;60852;52.190;4.422;2023-03-01T01:03:31;24.07;;;23.28;;
68942;SDS011;60852;52.190;4.422;2023-03-01T01:05:57;24.51;;;23.93;;
68942;SDS011;60852;52.190;4.422;2023-03-01T01:08:22;23.87;;;23.43;;
68942;SDS011;60852;52.190;4.422;2023-03-01T01:10:48;25.16;;;24.46;;
68942;SDS011;60852;52.190;4.422;2023-03-01T01:13:13;24.70;;;24.07;;
68942;SDS011;60852;52.190;4.422;2023-03-01T01:15:39;25.04;;;24.58;;
68942;SDS011;60852;52.190;4.422;2023-03-01T01:18:05;26.51;;;25.72;;
68942;SDS011;60852;52.190;4.422;2023-03-01T01:20:31;26.13;;;25.35;;
68942;SDS011;60852;52.190;4.422;2023-03-01T01:22:57;25.83;;;25.12;;
68942;SDS011;60852;52.190;4.422;2023-03-01T01:25:23;27.29;;;26.47;;
68942;SDS011;60852;52.190;4.422;2023-03-01T01:27:50;26.79;;;25.93;;
68942;SDS011;60852;52.190;4.422;2023-03-01T01:30:16;26.87;;;25.84;;
68942;SDS011;60852;52.190;4.422;2023-03-01T01:32:42;26.81;;;25.97;;
68942;SDS011;60852;52.190;4.422;2023-03-01T01:35:08;26.69;;;26.02;;
68942;SDS011;60852;52.190;4.422;2023-03-01T01:37:34;26.01;;;25.72;;
68942;SDS011;60852;52.190;4.422;2023-03-01T01:40:00;26.38;;;25.89;;
68942;SDS011;60852;52.190;4.422;2023-03-01T01:42:29;27.28;;;26.44;;
68942;SDS011;60852;52.190;4.422;2023-03-01T01:48:00;26.42;;;25.98;;
68942;SDS011;60852;52.190;4.422;2023-03-01T01:50:32;26.85;;;26.44;;
68942;SDS011;60852;52.190;4.422;2023-03-01T01:53:08;28.01;;;27.03;;
68942;SDS011;60852;52.190;4.422;2023-03-01T01:55:41;29.23;;;28.09;;
68942;SDS011;60852;52.190;4.422;2023-03-01T01:58:11;28.82;;;27.66;;
68942;SDS011;60852;52.190;4.422;2023-03-01T02:00:42;28.35;;;27.45;;
68942;SDS011;60852;52.190;4.422;2023-03-01T02:03:13;30.19;;;29.10;;
68942;SDS011;60852;52.190;4.422;2023-03-01T02:06:05;30.44;;;29.34;;
68942;SDS011;60852;52.190;4.422;2023-03-01T02:08:46;31.03;;;29.82;;
68942;SDS011;60852;52.190;4.422;2023-03-01T02:11:14;31.40;;;30.37;;
68942;SDS011;60852;52.190;4.422;2023-03-01T02:13:40;29.93;;;28.83;;
68942;SDS011;60852;52.190;4.422;2023-03-01T02:16:08;31.47;;;30.31;;
68942;SDS011;60852;52.190;4.422;2023-03-01T02:18:36;31.26;;;30.32;;
68942;SDS011;60852;52.190;4.422;2023-03-01T02:21:20;31.26;;;30.16;;
68942;SDS011;60852;52.190;4.422;2023-03-01T02:23:58;32.28;;;31.10;;
68942;SDS011;60852;52.190;4.422;2023-03-01T02:29:20;32.91;;;31.52;;
68942;SDS011;60852;52.190;4.422;2023-03-01T02:31:47;33.31;;;32.03;;
68942;SDS011;60852;52.190;4.422;2023-03-01T02:34:16;33.40;;;32.03;;
68942;SDS011;60852;52.190;4.422;2023-03-01T02:36:48;33.89;;;32.67;;
68942;SDS011;60852;52.190;4.422;2023-03-01T02:39:19;32.89;;;32.24;;
68942;SDS011;60852;52.190;4.422;2023-03-01T02:41:54;34.05;;;32.77;;
68942;SDS011;60852;52.190;4.422;2023-03-01T02:44:22;35.28;;;33.58;;
68942;SDS011;60852;52.190;4.422;2023-03-01T02:46:52;33.82;;;32.41;;
68942;SDS011;60852;52.190;4.422;2023-03-01T02:49:31;32.98;;;31.93;;
68942;SDS011;60852;52.190;4.422;2023-03-01T02:54:41;33.45;;;32.05;;
68942;SDS011;60852;52.190;4.422;2023-03-01T02:57:18;34.65;;;33.20;;
68942;SDS011;60852;52.190;4.422;2023-03-01T02:59:44;35.00;;;33.60;;
68942;SDS011;60852;52.190;4.422;2023-03-01T03:02:24;34.88;;;33.46;;
68942;SDS011;60852;52.190;4.422;2023-03-01T03:07:57;35.25;;;33.84;;
68942;SDS011;60852;52.190;4.422;2023-03-01T03:10:35;35.28;;;33.96;;
68942;SDS011;60852;52.190;4.422;2023-03-01T03:13:11;36.49;;;34.66;;
68942;SDS011;60852;52.190;4.422;2023-03-01T03:15:39;36.56;;;35.05;;
68942;SDS011;60852;52.190;4.422;2023-03-01T03:18:12;36.47;;;34.72;;
68942;SDS011;60852;52.190;4.422;2023-03-01T03:20:41;35.76;;;34.56;;
68942;SDS011;60852;52.190;4.422;2023-03-01T03:23:07;35.74;;;34.66;;
68942;SDS011;60852;52.190;4.422;2023-03-01T03:25:33;37.60;;;35.91;;
68942;SDS011;60852;52.190;4.422;2023-03-01T03:28:03;37.57;;;36.00;;
68942;SDS011;60852;52.190;4.422;2023-03-01T03:30:35;37.32;;;35.90;;
68942;SDS011;60852;52.190;4.422;2023-03-01T03:33:04;36.72;;;35.19;;
68942;SDS011;60852;52.190;4.422;2023-03-01T03:35:32;37.37;;;35.78;;
68942;SDS011;60852;52.190;4.422;2023-03-01T03:38:00;37.07;;;35.21;;
68942;SDS011;60852;52.190;4.422;2023-03-01T03:40:35;36.91;;;35.52;;
68942;SDS011;60852;52.190;4.422;2023-03-01T03:43:03;37.54;;;36.06;;
68942;SDS011;60852;52.190;4.422;2023-03-01T03:45:30;36.97;;;35.52;;
68942;SDS011;60852;52.190;4.422;2023-03-01T03:47:58;36.78;;;35.11;;
68942;SDS011;60852;52.190;4.422;2023-03-01T03:50:25;36.73;;;35.17;;
68942;SDS011;60852;52.190;4.422;2023-03-01T03:52:51;36.66;;;35.30;;
68942;SDS011;60852;52.190;4.422;2023-03-01T03:55:16;36.93;;;35.37;;
68942;SDS011;60852;52.190;4.422;2023-03-01T03:57:45;36.68;;;35.08;;
68942;SDS011;60852;52.190;4.422;2023-03-01T04:00:21;35.98;;;34.15;;
68942;SDS011;60852;52.190;4.422;2023-03-01T04:02:49;35.88;;;34.00;;
68942;SDS011;60852;52.190;4.422;2023-03-01T04:05:16;34.90;;;33.31;;
68942;SDS011;60852;52.190;4.422;2023-03-01T04:07:44;34.61;;;33.02;;
68942;SDS011;60852;52.190;4.422;2023-03-01T04:10:12;35.22;;;33.71;;
68942;SDS011;60852;52.190;4.422;2023-03-01T04:12:40;34.91;;;33.53;;
68942;SDS011;60852;52.190;4.422;2023-03-01T04:15:06;34.01;;;32.92;;
68942;SDS011;60852;52.190;4.422;2023-03-01T04:17:39;35.44;;;34.14;;
68942;SDS011;60852;52.190;4.422;2023-03-01T04:20:07;35.20;;;33.80;;
68942;SDS011;60852;52.190;4.422;2023-03-01T04:22:38;35.77;;;34.00;;
68942;SDS011;60852;52.190;4.422;2023-03-01T04:25:05;35.25;;;33.77;;
68942;SDS011;60852;52.190;4.422;2023-03-01T04:27:35;35.49;;;33.98;;
68942;SDS011;60852;52.190;4.422;2023-03-01T04:30:02;36.83;;;35.36;;
68942;SDS011;60852;52.190;4.422;2023-03-01T04:32:28;35.64;;;34.46;;
68942;SDS011;60852;52.190;4.422;2023-03-01T04:34:54;36.50;;;34.75;;
68942;SDS011;60852;52.190;4.422;2023-03-01T04:37:19;38.23;;;36.20;;
68942;SDS011;60852;52.190;4.422;2023-03-01T04:39:45;37.84;;;36.20;;
68942;SDS011;60852;52.190;4.422;2023-03-01T04:42:13;36.31;;;34.77;;
68942;SDS011;60852;52.190;4.422;2023-03-01T04:44:39;35.97;;;34.47;;
68942;SDS011;60852;52.190;4.422;2023-03-01T04:47:05;39.53;;;38.04;;
68942;SDS011;60852;52.190;4.422;2023-03-01T04:49:30;42.01;;;40.44;;
68942;SDS011;60852;52.190;4.422;2023-03-01T04:51:56;43.79;;;42.22;;
68942;SDS011;60852;52.190;4.422;2023-03-01T04:54:33;43.85;;;42.12;;
68942;SDS011;60852;52.190;4.422;2023-03-01T04:57:00;41.77;;;39.97;;
68942;SDS011;60852;52.190;4.422;2023-03-01T04:59:27;37.69;;;35.94;;
68942;SDS011;60852;52.190;4.422;2023-03-01T05:01:54;37.36;;;35.65;;
68942;SDS011;60852;52.190;4.422;2023-03-01T05:04:21;36.87;;;35.33;;
68942;SDS011;60852;52.190;4.422;2023-03-01T05:06:50;37.92;;;36.49;;
68942;SDS011;60852;52.190;4.422;2023-03-01T05:09:15;36.84;;;35.23;;
68942;SDS011;60852;52.190;4.422;2023-03-01T05:11:42;36.28;;;34.79;;
68942;SDS011;60852;52.190;4.422;2023-03-01T05:14:08;36.58;;;35.24;;
68942;SDS011;60852;52.190;4.422;2023-03-01T05:16:35;36.82;;;35.16;;
68942;SDS011;60852;52.190;4.422;2023-03-01T05:19:02;37.42;;;35.61;;
68942;SDS011;60852;52.190;4.422;2023-03-01T05:21:39;37.12;;;35.42;;
68942;SDS011;60852;52.190;4.422;2023-03-01T05:24:24;37.68;;;36.12;;
68942;SDS011;60852;52.190;4.422;2023-03-01T05:26:50;38.39;;;36.86;;
68942;SDS011;60852;52.190;4.422;2023-03-01T05:29:17;40.56;;;38.45;;
68942;SDS011;60852;52.190;4.422;2023-03-01T05:31:44;38.15;;;36.52;;
68942;SDS011;60852;52.190;4.422;2023-03-01T05:34:09;38.76;;;36.83;;
68942;SDS011;60852;52.190;4.422;2023-03-01T05:36:38;38.85;;;37.23;;
68942;SDS011;60852;52.190;4.422;2023-03-01T05:39:03;39.98;;;38.54;;
68942;SDS011;60852;52.190;4.422;2023-03-01T05:41:29;40.29;;;38.83;;
68942;SDS011;60852;52.190;4.422;2023-03-01T05:43:54;42.90;;;40.88;;
68942;SDS011;60852;52.190;4.422;2023-03-01T05:46:19;40.89;;;38.88;;
68942;SDS011;60852;52.190;4.422;2023-03-01T05:48:45;39.29;;;37.46;;
68942;SDS011;60852;52.190;4.422;2023-03-01T05:51:10;38.31;;;36.74;;
68942;SDS011;60852;52.190;4.422;2023-03-01T05:53:37;38.22;;;36.62;;
68942;SDS011;60852;52.190;4.422;2023-03-01T05:56:03;39.21;;;37.59;;
68942;SDS011;60852;52.190;4.422;2023-03-01T05:58:29;40.29;;;38.50;;
68942;SDS011;60852;52.190;4.422;2023-03-01T06:00:54;39.87;;;37.97;;
68942;SDS011;60852;52.190;4.422;2023-03-01T06:03:19;41.00;;;38.95;;
68942;SDS011;60852;52.190;4.422;2023-03-01T06:05:45;40.72;;;39.38;;
68942;SDS011;60852;52.190;4.422;2023-03-01T06:08:10;41.10;;;39.51;;
68942;SDS011;60852;52.190;4.422;2023-03-01T06:10:37;41.96;;;40.04;;
68942;SDS011;60852;52.190;4.422;2023-03-01T06:13:02;42.63;;;40.74;;
68942;SDS011;60852;52.190;4.422;2023-03-01T06:15:28;46.80;;;44.42;;
68942;SDS011;60852;52.190;4.422;2023-03-01T06:17:54;48.80;;;47.07;;
68942;SDS011;60852;52.190;4.422;2023-03-01T06:20:24;47.10;;;45.25;;
68942;SDS011;60852;52.190;4.422;2023-03-01T06:22:52;47.05;;;45.13;;
68942;SDS011;60852;52.190;4.422;2023-03-01T06:25:18;46.79;;;45.01;;
68942;SDS011;60852;52.190;4.422;2023-03-01T06:27:46;49.56;;;47.53;;
68942;SDS011;60852;52.190;4.422;2023-03-01T06:30:12;51.95;;;49.45;;
68942;SDS011;60852;52.190;4.422;2023-03-01T06:32:40;52.23;;;49.92;;
68942;SDS011;60852;52.190;4.422;2023-03-01T06:35:07;52.19;;;49.74;;
68942;SDS011;60852;52.190;4.422;2023-03-01T06:37:33;51.77;;;49.04;;
68942;SDS011;60852;52.190;4.422;2023-03-01T06:40:00;49.27;;;47.48;;
68942;SDS011;60852;52.190;4.422;2023-03-01T06:42:30;48.00;;;46.01;;
68942;SDS011;60852;52.190;4.422;2023-03-01T06:44:55;47.31;;;45.00;;
68942;SDS011;60852;52.190;4.422;2023-03-01T06:47:21;46.12;;;44.51;;
68942;SDS011;60852;52.190;4.422;2023-03-01T06:49:46;47.36;;;45.42;;
68942;SDS011;60852;52.190;4.422;2023-03-01T06:52:11;44.19;;;42.82;;
68942;SDS011;60852;52.190;4.422;2023-03-01T06:54:37;43.76;;;42.02;;
68942;SDS011;60852;52.190;4.422;2023-03-01T06:57:02;43.85;;;42.04;;
68942;SDS011;60852;52.190;4.422;2023-03-01T06:59:28;43.33;;;41.81;;
68942;SDS011;60852;52.190;4.422;2023-03-01T07:01:53;44.18;;;42.73;;
68942;SDS011;60852;52.190;4.422;2023-03-01T07:04:19;45.37;;;43.61;;
68942;SDS011;60852;52.190;4.422;2023-03-01T07:06:44;46.21;;;44.49;;
68942;SDS011;60852;52.190;4.422;2023-03-01T07:09:09;44.78;;;43.25;;
68942;SDS011;60852;52.190;4.422;2023-03-01T07:11:35;46.82;;;44.72;;
68942;SDS011;60852;52.190;4.422;2023-03-01T07:14:01;45.29;;;43.59;;
68942;SDS011;60852;52.190;4.422;2023-03-01T07:16:26;44.25;;;42.66;;
68942;SDS011;60852;52.190;4.422;2023-03-01T07:18:52;45.82;;;44.01;;
68942;SDS011;60852;52.190;4.422;2023-03-01T07:21:17;45.72;;;43.67;;
68942;SDS011;60852;52.190;4.422;2023-03-01T07:23:42;45.82;;;44.46;;
68942;SDS011;60852;52.190;4.422;2023-03-01T07:26:08;51.51;;;49.33;;
68942;SDS011;60852;52.190;4.422;2023-03-01T07:28:33;48.26;;;46.36;;
68942;SDS011;60852;52.190;4.422;2023-03-01T07:31:04;46.27;;;44.36;;
68942;SDS011;60852;52.190;4.422;2023-03-01T07:33:31;44.20;;;42.92;;
68942;SDS011;60852;52.190;4.422;2023-03-01T07:35:57;44.26;;;42.38;;
68942;SDS011;60852;52.190;4.422;2023-03-01T07:38:25;44.52;;;42.68;;
68942;SDS011;60852;52.190;4.422;2023-03-01T07:40:51;44.49;;;42.61;;
68942;SDS011;60852;52.190;4.422;2023-03-01T07:43:17;43.62;;;41.69;;
68942;SDS011;60852;52.190;4.422;2023-03-01T07:45:42;43.41;;;41.41;;
68942;SDS011;60852;52.190;4.422;2023-03-01T07:48:08;42.89;;;41.07;;
68942;SDS011;60852;52.190;4.422;2023-03-01T07:50:33;44.23;;;42.02;;
68942;SDS011;60852;52.190;4.422;2023-03-01T07:52:59;42.99;;;41.43;;
68942;SDS011;60852;52.190;4.422;2023-03-01T07:55:24;43.42;;;41.82;;
68942;SDS011;60852;52.190;4.422;2023-03-01T07:57:50;42.34;;;40.61;;
68942;SDS011;60852;52.190;4.422;2023-03-01T08:00:15;42.04;;;40.39;;
68942;SDS011;60852;52.190;4.422;2023-03-01T08:02:41;42.95;;;41.03;;
68942;SDS011;60852;52.190;4.422;2023-03-01T08:05:07;44.46;;;42.61;;
68942;SDS011;60852;52.190;4.422;2023-03-01T08:07:34;43.10;;;41.28;;
68942;SDS011;60852;52.190;4.422;2023-03-01T08:09:59;43.59;;;41.92;;
68942;SDS011;60852;52.190;4.422;2023-03-01T08:12:25;44.74;;;42.79;;
68942;SDS011;60852;52.190;4.422;2023-03-01T08:14:52;46.58;;;44.32;;
68942;SDS011;60852;52.190;4.422;2023-03-01T08:17:18;45.43;;;43.70;;
68942;SDS011;60852;52.190;4.422;2023-03-01T08:19:43;46.93;;;44.90;;
68942;SDS011;60852;52.190;4.422;2023-03-01T08:22:09;46.95;;;44.70;;
68942;SDS011;60852;52.190;4.422;2023-03-01T08:24:34;46.98;;;45.19;;
68942;SDS011;60852;52.190;4.422;2023-03-01T08:26:59;46.94;;;45.12;;
68942;SDS011;60852;52.190;4.422;2023-03-01T08:29:26;49.08;;;47.01;;
68942;SDS011;60852;52.190;4.422;2023-03-01T08:31:51;50.25;;;48.02;;
68942;SDS011;60852;52.190;4.422;2023-03-01T08:34:17;49.69;;;47.33;;
68942;SDS011;60852;52.190;4.422;2023-03-01T08:36:44;51.77;;;49.11;;
68942;SDS011;60852;52.190;4.422;2023-03-01T08:39:11;51.13;;;48.58;;
68942;SDS011;60852;52.190;4.422;2023-03-01T08:41:39;51.24;;;48.63;;
68942;SDS011;60852;52.190;4.422;2023-03-01T08:44:05;51.51;;;49.30;;
68942;SDS011;60852;52.190;4.422;2023-03-01T08:46:36;51.81;;;49.29;;
68942;SDS011;60852;52.190;4.422;2023-03-01T08:49:07;50.82;;;48.82;;
68942;SDS011;60852;52.190;4.422;2023-03-01T08:51:34;53.08;;;50.82;;
68942;SDS011;60852;52.190;4.422;2023-03-01T08:54:12;56.87;;;54.44;;
68942;SDS011;60852;52.190;4.422;2023-03-01T08:56:39;57.19;;;54.65;;
68942;SDS011;60852;52.190;4.422;2023-03-01T08:59:05;55.48;;;53.45;;
68942;SDS011;60852;52.190;4.422;2023-03-01T09:01:31;55.48;;;53.09;;
68942;SDS011;60852;52.190;4.422;2023-03-01T09:03:56;54.20;;;51.96;;
68942;SDS011;60852;52.190;4.422;2023-03-01T09:06:22;52.79;;;50.57;;
68942;SDS011;60852;52.190;4.422;2023-03-01T09:08:48;51.42;;;49.20;;
68942;SDS011;60852;52.190;4.422;2023-03-01T09:11:16;50.93;;;48.52;;
68942;SDS011;60852;52.190;4.422;2023-03-01T09:13:46;51.49;;;49.00;;
68942;SDS011;60852;52.190;4.422;2023-03-01T09:16:14;51.86;;;49.37;;
68942;SDS011;60852;52.190;4.422;2023-03-01T09:18:43;53.43;;;50.49;;
68942;SDS011;60852;52.190;4.422;2023-03-01T09:21:13;52.25;;;49.62;;
68942;SDS011;60852;52.190;4.422;2023-03-01T09:23:41;52.25;;;50.03;;
68942;SDS011;60852;52.190;4.422;2023-03-01T09:26:10;52.96;;;50.69;;
68942;SDS011;60852;52.190;4.422;2023-03-01T09:28:37;53.56;;;51.11;;
68942;SDS011;60852;52.190;4.422;2023-03-01T09:31:04;51.73;;;49.47;;
68942;SDS011;60852;52.190;4.422;2023-03-01T09:33:30;51.42;;;49.37;;
68942;SDS011;60852;52.190;4.422;2023-03-01T09:35:58;50.39;;;48.60;;
68942;SDS011;60852;52.190;4.422;2023-03-01T09:38:30;49.41;;;47.42;;
68942;SDS011;60852;52.190;4.422;2023-03-01T09:40:56;49.13;;;47.19;;
68942;SDS011;60852;52.190;4.422;2023-03-01T09:46:09;50.84;;;48.07;;
68942;SDS011;60852;52.190;4.422;2023-03-01T09:48:42;49.91;;;48.18;;
68942;SDS011;60852;52.190;4.422;2023-03-01T09:51:26;50.55;;;48.16;;
68942;SDS011;60852;52.190;4.422;2023-03-01T09:53:55;50.83;;;48.51;;
68942;SDS011;60852;52.190;4.422;2023-03-01T09:56:36;51.75;;;49.82;;
68942;SDS011;60852;52.190;4.422;2023-03-01T09:59:18;53.96;;;51.39;;
68942;SDS011;60852;52.190;4.422;2023-03-01T10:01:59;54.04;;;51.68;;
68942;SDS011;60852;52.190;4.422;2023-03-01T10:04:47;54.71;;;51.69;;
68942;SDS011;60852;52.190;4.422;2023-03-01T10:09:53;55.67;;;53.01;;
68942;SDS011;60852;52.190;4.422;2023-03-01T10:12:23;56.28;;;53.38;;
68942;SDS011;60852;52.190;4.422;2023-03-01T10:14:57;56.14;;;53.72;;
68942;SDS011;60852;52.190;4.422;2023-03-01T10:17:46;57.85;;;54.54;;
68942;SDS011;60852;52.190;4.422;2023-03-01T10:20:20;56.25;;;53.54;;
68942;SDS011;60852;52.190;4.422;2023-03-01T10:22:51;55.66;;;52.90;;
68942;SDS011;60852;52.190;4.422;2023-03-01T10:25:23;55.57;;;52.83;;
68942;SDS011;60852;52.190;4.422;2023-03-01T10:28:00;54.46;;;51.65;;
68942;SDS011;60852;52.190;4.422;2023-03-01T10:30:38;52.75;;;50.00;;
68942;SDS011;60852;52.190;4.422;2023-03-01T10:33:49;54.36;;;51.64;;
68942;SDS011;60852;52.190;4.422;2023-03-01T10:36:02;54.29;;;51.83;;
68942;SDS011;60852;52.190;4.422;2023-03-01T10:38:30;52.98;;;50.50;;
68942;SDS011;60852;52.190;4.422;2023-03-01T10:41:11;51.70;;;49.41;;
68942;SDS011;60852;52.190;4.422;2023-03-01T10:43:47;51.07;;;48.72;;
68942;SDS011;60852;52.190;4.422;2023-03-01T10:49:20;46.79;;;44.80;;
68942;SDS011;60852;52.190;4.422;2023-03-01T10:51:48;42.31;;;40.55;;
68942;SDS011;60852;52.190;4.422;2023-03-01T10:54:26;40.83;;;39.28;;
68942;SDS011;60852;52.190;4.422;2023-03-01T10:56:55;38.69;;;37.14;;
68942;SDS011;60852;52.190;4.422;2023-03-01T10:59:30;37.62;;;35.83;;
68942;SDS011;60852;52.190;4.422;2023-03-01T11:02:13;39.05;;;37.25;;
68942;SDS011;60852;52.190;4.422;2023-03-01T11:04:58;39.12;;;37.47;;
68942;SDS011;60852;52.190;4.422;2023-03-01T11:07:51;38.85;;;37.12;;
68942;SDS011;60852;52.190;4.422;2023-03-01T11:12:52;35.39;;;33.83;;
68942;SDS011;60852;52.190;4.422;2023-03-01T11:15:30;32.66;;;31.27;;
68942;SDS011;60852;52.190;4.422;2023-03-01T11:17:56;31.30;;;30.18;;
68942;SDS011;60852;52.190;4.422;2023-03-01T11:20:40;31.37;;;30.38;;
68942;SDS011;60852;52.190;4.422;2023-03-01T11:23:10;30.10;;;28.86;;
68942;SDS011;60852;52.190;4.422;2023-03-01T11:25:41;27.26;;;26.57;;
68942;SDS011;60852;52.190;4.422;2023-03-01T11:28:12;26.79;;;26.22;;
68942;SDS011;60852;52.190;4.422;2023-03-01T11:31:02;27.60;;;26.67;;
68942;SDS011;60852;52.190;4.422;2023-03-01T11:36:21;24.66;;;23.99;;
68942;SDS011;60852;52.190;4.422;2023-03-01T11:38:56;26.32;;;25.38;;
68942;SDS011;60852;52.190;4.422;2023-03-01T11:41:38;25.48;;;24.48;;
68942;SDS011;60852;52.190;4.422;2023-03-01T11:44:23;23.39;;;22.49;;
68942;SDS011;60852;52.190;4.422;2023-03-01T11:50:09;22.75;;;22.21;;
68942;SDS011;60852;52.190;4.422;2023-03-01T12:08:58;21.11;;;20.38;;
68942;SDS011;60852;52.190;4.422;2023-03-01T12:19:33;18.36;;;18.25;;
68942;SDS011;60852;52.190;4.422;2023-03-01T12:24:59;18.48;;;17.83;;
68942;SDS011;60852;52.190;4.422;2023-03-01T12:27:55;18.14;;;17.71;;
68942;SDS011;60852;52.190;4.422;2023-03-01T12:34:01;17.33;;;17.26;;
68942;SDS011;60852;52.190;4.422;2023-03-01T12:48:13;19.66;;;19.45;;
68942;SDS011;60852;52.190;4.422;2023-03-01T12:50:59;21.44;;;20.79;;
68942;SDS011;60852;52.190;4.422;2023-03-01T12:53:36;22.47;;;21.69;;
68942;SDS011;60852;52.190;4.422;2023-03-01T12:56:07;21.48;;;21.27;;
68942;SDS011;60852;52.190;4.422;2023-03-01T12:58:39;22.13;;;21.69;;
68942;SDS011;60852;52.190;4.422;2023-03-01T13:10:07;22.84;;;21.79;;
68942;SDS011;60852;52.190;4.422;2023-03-01T13:13:00;21.68;;;21.10;;
68942;SDS011;60852;52.190;4.422;2023-03-01T13:15:29;20.56;;;20.50;;
68942;SDS011;60852;52.190;4.422;2023-03-01T13:18:03;20.63;;;20.29;;
68942;SDS011;60852;52.190;4.422;2023-03-01T13:26:06;20.75;;;20.20;;
68942;SDS011;60852;52.190;4.422;2023-03-01T13:28:42;20.81;;;20.01;;
68942;SDS011;60852;52.190;4.422;2023-03-01T13:33:44;20.18;;;19.53;;
68942;SDS011;60852;52.190;4.422;2023-03-01T13:36:10;20.11;;;19.32;;
68942;SDS011;60852;52.190;4.422;2023-03-01T13:41:52;21.97;;;20.90;;
68942;SDS011;60852;52.190;4.422;2023-03-01T13:46:48;21.09;;;20.53;;
68942;SDS011;60852;52.190;4.422;2023-03-01T13:49:17;21.84;;;20.99;;
68942;SDS011;60852;52.190;4.422;2023-03-01T13:51:46;23.15;;;22.50;;
68942;SDS011;60852;52.190;4.422;2023-03-01T13:54:14;20.45;;;19.76;;
68942;SDS011;60852;52.190;4.422;2023-03-01T13:56:43;19.90;;;19.21;;
68942;SDS011;60852;52.190;4.422;2023-03-01T13:59:17;19.53;;;18.74;;
68942;SDS011;60852;52.190;4.422;2023-03-01T14:01:51;18.38;;;17.66;;
68942;SDS011;60852;52.190;4.422;2023-03-01T14:04:27;18.55;;;17.73;;
68942;SDS011;60852;52.190;4.422;2023-03-01T14:09:46;17.27;;;16.85;;
68942;SDS011;60852;52.190;4.422;2023-03-01T14:20:29;17.29;;;16.96;;
68942;SDS011;60852;52.190;4.422;2023-03-01T14:23:01;17.95;;;17.26;;
68942;SDS011;60852;52.190;4.422;2023-03-01T14:25:35;17.27;;;16.65;;
68942;SDS011;60852;52.190;4.422;2023-03-01T14:28:24;17.91;;;17.35;;
68942;SDS011;60852;52.190;4.422;2023-03-01T14:30:52;17.47;;;17.28;;
68942;SDS011;60852;52.190;4.422;2023-03-01T14:33:24;17.89;;;17.54;;
68942;SDS011;60852;52.190;4.422;2023-03-01T14:38:41;15.65;;;15.27;;
68942;SDS011;60852;52.190;4.422;2023-03-01T14:41:09;16.45;;;15.78;;
68942;SDS011;60852;52.190;4.422;2023-03-01T14:43:41;15.16;;;14.97;;
68942;SDS011;60852;52.190;4.422;2023-03-01T14:48:51;15.27;;;15.11;;
68942;SDS011;60852;52.190;4.422;2023-03-01T14:51:21;15.52;;;15.23;;
68942;SDS011;60852;52.190;4.422;2023-03-01T14:53:47;16.24;;;15.69;;
68942;SDS011;60852;52.190;4.422;2023-03-01T14:56:14;16.05;;;15.62;;
68942;SDS011;60852;52.190;4.422;2023-03-01T14:58:44;16.15;;;15.68;;
68942;SDS011;60852;52.190;4.422;2023-03-01T15:01:16;16.57;;;16.00;;
68942;SDS011;60852;52.190;4.422;2023-03-01T15:03:44;17.20;;;16.72;;
68942;SDS011;60852;52.190;4.422;2023-03-01T15:06:17;16.50;;;16.14;;
68942;SDS011;60852;52.190;4.422;2023-03-01T15:08:46;16.14;;;15.77;;
68942;SDS011;60852;52.190;4.422;2023-03-01T15:13:49;16.86;;;16.46;;
68942;SDS011;60852;52.190;4.422;2023-03-01T15:16:19;17.52;;;17.25;;
68942;SDS011;60852;52.190;4.422;2023-03-01T15:18:49;18.27;;;17.99;;
68942;SDS011;60852;52.190;4.422;2023-03-01T15:21:22;19.12;;;18.50;;
68942;SDS011;60852;52.190;4.422;2023-03-01T15:23:50;19.40;;;18.80;;
68942;SDS011;60852;52.190;4.422;2023-03-01T15:26:53;18.95;;;18.45;;
68942;SDS011;60852;52.190;4.422;2023-03-01T15:29:19;18.96;;;18.51;;
68942;SDS011;60852;52.190;4.422;2023-03-01T15:32:00;17.80;;;17.44;;
68942;SDS011;60852;52.190;4.422;2023-03-01T15:34:33;18.17;;;17.83;;
68942;SDS011;60852;52.190;4.422;2023-03-01T15:37:02;18.71;;;18.20;;
68942;SDS011;60852;52.190;4.422;2023-03-01T15:39:37;18.67;;;18.39;;
68942;SDS011;60852;52.190;4.422;2023-03-01T15:42:11;17.59;;;17.31;;
68942;SDS011;60852;52.190;4.422;2023-03-01T15:44:41;16.97;;;16.65;;
68942;SDS011;60852;52.190;4.422;2023-03-01T15:47:28;18.43;;;17.95;;
68942;SDS011;60852;52.190;4.422;2023-03-01T15:49:54;18.75;;;18.39;;
68942;SDS011;60852;52.190;4.422;2023-03-01T15:52:32;19.12;;;18.28;;
68942;SDS011;60852;52.190;4.422;2023-03-01T15:55:26;17.85;;;17.54;;
68942;SDS011;60852;52.190;4.422;2023-03-01T15:58:02;17.33;;;17.00;;
68942;SDS011;60852;52.190;4.422;2023-03-01T16:00:38;17.31;;;17.09;;
68942;SDS011;60852;52.190;4.422;2023-03-01T16:03:04;17.60;;;17.18;;
68942;SDS011;60852;52.190;4.422;2023-03-01T16:05:32;17.79;;;17.42;;
68942;SDS011;60852;52.190;4.422;2023-03-01T16:08:00;16.09;;;16.05;;
68942;SDS011;60852;52.190;4.422;2023-03-01T16:10:26;16.85;;;16.42;;
68942;SDS011;60852;52.190;4.422;2023-03-01T16:12:52;16.12;;;15.81;;
68942;SDS011;60852;52.190;4.422;2023-03-01T16:15:22;15.23;;;15.21;;
68942;SDS011;60852;52.190;4.422;2023-03-01T16:17:50;15.42;;;15.02;;
68942;SDS011;60852;52.190;4.422;2023-03-01T16:20:17;15.57;;;15.31;;
68942;SDS011;60852;52.190;4.422;2023-03-01T16:22:44;14.90;;;14.65;;
68942;SDS011;60852;52.190;4.422;2023-03-01T16:25:14;14.93;;;14.77;;
68942;SDS011;60852;52.190;4.422;2023-03-01T16:27:44;14.07;;;14.07;;
68942;SDS011;60852;52.190;4.422;2023-03-01T16:30:11;14.31;;;14.10;;